Ludowici, GA (31316)

6:51 PM EST on January 21, 2017 (GMT -0500)
Briar Crest | | Change Station
Active Advisory: Small Craft Advisory Active Notice: Public Information Statement

Elev 98 ft 31.78 °N, 81.71 °W | Updated 19 seconds ago

Rain
Rain
60.3 °F
Feels Like 60.3 °F
N
3.2
Wind Variable Wind from ESE

Today
High -- | Low -- °F
--% Chance of Precip.
Yesterday
High -- | Low -- °F
Precip. -- in
Pressure 29.78 in
Visibility 5.0 miles
Clouds Scattered Clouds 6500 ft
Mostly Cloudy 7500 ft
Overcast 9000 ft
Dew Point 60 °F
Humidity 99%
Rainfall 1.42 in
Snow Depth Not available.
7:25 AM 5:51 PM
Waning Crescent, 31% visible
METAR KJES 212335Z AUTO 16005KT 5SM RA SCT065 BKN075 OVC090 17/15 A2978 RMK AO2
Pressure 29.78 in
Visibility 5.0 miles
Clouds Scattered Clouds 6500 ft
Mostly Cloudy 7500 ft
Overcast 9000 ft
Dew Point 60 °F
Humidity 99%
Rainfall 1.42 in
Snow Depth Not available.
7:25 AM 5:51 PM
Waning Crescent, 31% visible
METAR KJES 212335Z AUTO 16005KT 5SM RA SCT065 BKN075 OVC090 17/15 A2978 RMK AO2

Get Your Daily Forecast Email!

Thanks for signing up!

Be on the lookout for a verification email in your inbox.

You'll start receiving the daily forecast at 8 AM.

×

10-Day Weather Forecast

Almanac

Astronomy

Jan. 21, 2017 Rise Set
Actual Time
Civil Twilight
Nautical Twilight
Astronomical Twilight
Moon
Length of Visible Light
Length of Day
Tomorrow will be .
, % of the Moon is Illuminated

Today's Extremes

State Highs State Lows

Community

WunderPhotos

Upload Photos

1,962,540 photos uploaded!

WunderBlog® & News

Nearby

Air Quality

  Air Quality AQ Index Pollutant
Not available.

Snow Depth

Station Depth Elevation

Earthquake Activity

City Distance Mag. Time & Date
Minimum magnitude displayed is 2.5.

Coastal Water Temperatures

Place Temperature

Stations

Nearby Weather Stations

Station Location Temp. Windchill Dew Point Humidity Wind Precip. Elev Updated Type
                   

Watches & Warnings

Small Craft Advisory
Issued: 4:33 PM EST Jan. 21, 2017 – National Weather Service

... Small Craft Advisory in effect from 5 PM Sunday to 6 am EST
Tuesday...

The National Weather Service in Charleston has issued a Small
Craft Advisory... which is in effect from 5 PM Sunday to 6 am EST
Tuesday.

* Impacts... wind and or wave conditions will be hazardous to
small craft.

Precautionary/preparedness actions...

During a Small Craft Advisory... inexperienced mariners...
especially those operating smaller vessels... should avoid
navigating in hazardous conditions.